Rentchler, Illinois
Current Conditions -  °F | °C
As of 3:58 PM on Sunday 23 Nov 2014 (Local Time) from KBLV Reporting Station
Light Rain Light Rain  
Wind Chill: 53°   Ceiling: 500
Heat Index: 53°   Visibility: 5mi
Dew Point: 53°   Wind: 5mph
Humidity: 100%   Direction: 110°ESE
Pressure: 29.34"   Gusts: NA
Location:  38.5093°N, 89.8955°W
Report Text: KBLV 232158Z AUTO 11004KT 5SM -RA BR OVC005 12/12 A2934 RMK AO2 SLP938 P0008 T01190119
Loading
Personal Weather Stations






























Interactive Weather Map New forecast layout! Learn more

10-Day Weather Forecast

Advertisements
Track Severe Weather on mobile